Time;durP1;ratioP1;P1;durP2;ratioP2;P2;SDS_P1;SDS_P2;PMS_P1;PMS_P2;Temp;Humidity;BMP_temperature;BMP_pressure;BME280_temperature;BME280_humidity;BME280_pressure;Samples;Min_cycle;Max_cycle;Signal;HPM_P1;HPM_P2
2022/03/20 00:00:12;;;;;;;7.45;2.33;;;;;;;;;;5094165;28;20053;-82
2022/03/20 00:02:39;;;;;;;4.72;1.83;;;;;;;;;;5093977;28;20031;-82
2022/03/20 00:05:05;;;;;;;6.70;1.77;;;;;;;;;;5094088;28;20028;-82
2022/03/20 00:07:33;;;;;;;4.80;1.63;;;;;;;;;;5094410;28;20028;-81
2022/03/20 00:10:00;;;;;;;4.97;1.95;;;;;;;;;;5093801;28;20099;-81
2022/03/20 00:12:26;;;;;;;5.30;2.05;;;;;;;;;;5093982;28;20023;-82
2022/03/20 00:14:52;;;;;;;4.00;2.17;;;;;;;;;;5094043;28;20043;-82
2022/03/20 00:17:20;;;;;;;6.50;2.20;;;;;;;;;;5093487;28;20103;-82
2022/03/20 00:19:46;;;;;;;7.72;2.58;;;;;;;;;;5091643;28;20024;-81
2022/03/20 00:22:12;;;;;;;4.93;2.25;;;;;;;;;;5114192;28;20027;-81
2022/03/20 00:24:42;;;;;;;5.18;2.53;;;;;;;;;;5114011;28;20055;-81
2022/03/20 00:27:10;;;;;;;8.13;2.58;;;;;;;;;;5098132;28;20102;-81
2022/03/20 00:29:36;;;;;;;8.60;2.75;;;;;;;;;;5093732;28;20024;-82
2022/03/20 00:32:03;;;;;;;7.60;2.97;;;;;;;;;;5093259;28;20470;-81
2022/03/20 00:34:29;;;;;;;6.55;2.50;;;;;;;;;;5093172;28;20114;-81
2022/03/20 00:36:55;;;;;;;6.03;2.88;;;;;;;;;;5093211;28;20107;-82
2022/03/20 00:39:21;;;;;;;9.60;3.05;;;;;;;;;;5093308;28;20016;-82
2022/03/20 00:41:47;;;;;;;10.98;3.53;;;;;;;;;;5093380;28;20020;-82
2022/03/20 00:44:13;;;;;;;8.65;3.30;;;;;;;;;;5075121;28;20020;-81
2022/03/20 00:46:39;;;;;;;7.28;3.40;;;;;;;;;;5093497;28;20469;-82
2022/03/20 00:49:05;;;;;;;9.32;3.50;;;;;;;;;;5093719;28;20103;-82
2022/03/20 00:51:32;;;;;;;8.40;3.90;;;;;;;;;;5093300;28;20027;-82
2022/03/20 00:53:58;;;;;;;7.82;3.88;;;;;;;;;;5093304;28;20028;-81
2022/03/20 00:56:24;;;;;;;9.05;4.57;;;;;;;;;;5093034;28;20032;-81
2022/03/20 00:58:50;;;;;;;11.00;4.72;;;;;;;;;;5093117;28;20479;-81
2022/03/20 01:01:16;;;;;;;13.15;4.57;;;;;;;;;;5092986;28;20028;-81
2022/03/20 01:03:42;;;;;;;9.63;4.20;;;;;;;;;;5093228;28;20355;-82
2022/03/20 01:06:09;;;;;;;13.00;4.63;;;;;;;;;;5093494;28;20024;-82
2022/03/20 01:08:36;;;;;;;11.68;5.05;;;;;;;;;;5092930;28;20078;-81
2022/03/20 01:11:02;;;;;;;16.38;4.80;;;;;;;;;;5093268;28;20043;-81
2022/03/20 01:13:29;;;;;;;8.82;4.63;;;;;;;;;;5093434;28;20020;-82
2022/03/20 01:15:55;;;;;;;11.93;5.07;;;;;;;;;;5093041;28;20028;-81
2022/03/20 01:18:21;;;;;;;10.98;4.85;;;;;;;;;;5093404;28;20077;-82
2022/03/20 01:20:48;;;;;;;11.98;5.22;;;;;;;;;;5092801;28;20063;-82
2022/03/20 01:23:14;;;;;;;10.02;4.88;;;;;;;;;;5093028;28;20426;-81
2022/03/20 01:25:40;;;;;;;11.38;5.15;;;;;;;;;;5093032;28;20039;-82
2022/03/20 01:28:06;;;;;;;9.40;4.68;;;;;;;;;;5092889;28;20024;-82
2022/03/20 01:30:32;;;;;;;12.07;5.15;;;;;;;;;;5092749;28;20047;-81
2022/03/20 01:32:58;;;;;;;8.30;4.90;;;;;;;;;;5092684;28;20040;-81
2022/03/20 01:35:24;;;;;;;12.07;5.55;;;;;;;;;;5092814;28;20105;-81
2022/03/20 01:37:50;;;;;;;14.50;5.68;;;;;;;;;;5092683;28;20024;-81
2022/03/20 01:40:17;;;;;;;11.32;5.55;;;;;;;;;;5092908;28;20020;-82
2022/03/20 01:42:43;;;;;;;9.45;5.50;;;;;;;;;;5092807;28;20144;-81
2022/03/20 01:45:16;;;;;;;12.23;5.10;;;;;;;;;;5092506;28;20025;-81
2022/03/20 01:47:43;;;;;;;11.60;5.60;;;;;;;;;;5100869;28;20020;-82
2022/03/20 01:50:09;;;;;;;12.65;5.70;;;;;;;;;;5112948;28;20019;-81
2022/03/20 01:52:35;;;;;;;13.15;5.32;;;;;;;;;;5112919;28;20028;-82
2022/03/20 01:55:01;;;;;;;12.02;5.13;;;;;;;;;;5113234;28;20016;-81
2022/03/20 01:57:29;;;;;;;12.88;5.32;;;;;;;;;;5112504;28;20138;-82
2022/03/20 01:59:55;;;;;;;12.82;5.15;;;;;;;;;;5112727;28;20023;-81
2022/03/20 02:02:22;;;;;;;9.23;4.78;;;;;;;;;;5112916;28;20020;-82
2022/03/20 02:04:48;;;;;;;8.18;4.88;;;;;;;;;;5113080;28;20069;-82
2022/03/20 02:07:15;;;;;;;9.40;4.57;;;;;;;;;;5113214;28;20437;-81
2022/03/20 02:09:41;;;;;;;9.18;4.18;;;;;;;;;;5113186;28;20069;-81
2022/03/20 02:12:07;;;;;;;9.48;4.40;;;;;;;;;;5113061;28;20081;-80
2022/03/20 02:14:34;;;;;;;8.65;4.47;;;;;;;;;;5114107;28;20024;-81
2022/03/20 02:17:01;;;;;;;10.85;5.57;;;;;;;;;;5112887;28;20413;-81
2022/03/20 02:19:27;;;;;;;12.50;4.78;;;;;;;;;;5114425;28;20024;-82
2022/03/20 02:21:54;;;;;;;14.93;5.10;;;;;;;;;;5116292;28;20030;-82
2022/03/20 02:24:44;;;;;;;13.68;4.72;;;;;;;;;;5116295;28;20114;-81
2022/03/20 02:27:11;;;;;;;10.90;4.40;;;;;;;;;;5116694;28;20019;-81
2022/03/20 02:29:37;;;;;;;12.50;5.32;;;;;;;;;;5116148;28;20368;-81
2022/03/20 02:32:05;;;;;;;11.98;4.70;;;;;;;;;;5116267;28;20038;-81
2022/03/20 02:34:31;;;;;;;10.55;4.97;;;;;;;;;;5116099;28;20081;-81
2022/03/20 02:36:58;;;;;;;11.93;4.97;;;;;;;;;;5115892;28;20027;-81
2022/03/20 02:39:24;;;;;;;8.45;4.75;;;;;;;;;;5116275;28;20098;-81
2022/03/20 02:41:54;;;;;;;12.18;6.03;;;;;;;;;;5116076;28;20081;-81
2022/03/20 02:44:20;;;;;;;12.93;4.95;;;;;;;;;;5097505;28;20030;-82
2022/03/20 02:46:47;;;;;;;14.88;5.03;;;;;;;;;;5115880;28;20034;-82
2022/03/20 02:49:13;;;;;;;10.82;5.03;;;;;;;;;;5115702;28;20032;-81
2022/03/20 02:51:39;;;;;;;9.30;4.90;;;;;;;;;;5115813;28;20512;-81
2022/03/20 02:54:06;;;;;;;17.23;5.35;;;;;;;;;;5115858;28;20070;-81
2022/03/20 02:56:35;;;;;;;9.02;4.40;;;;;;;;;;5115745;28;20035;-81
2022/03/20 02:59:02;;;;;;;16.55;4.82;;;;;;;;;;5115693;28;20039;-82
2022/03/20 03:01:29;;;;;;;11.02;4.72;;;;;;;;;;5115881;28;20484;-82
2022/03/20 03:03:55;;;;;;;15.55;6.78;;;;;;;;;;5097192;28;20153;-81
2022/03/20 03:06:21;;;;;;;15.43;5.80;;;;;;;;;;5115436;28;20469;-82
2022/03/20 03:11:32;;;;;;;11.02;5.63;;;;;;;;;;5115505;28;20315;-82
2022/03/20 03:15:18;;;;;;;15.20;5.63;;;;;;;;;;5115312;28;20113;-81
2022/03/20 03:16:44;;;;;;;13.55;6.22;;;;;;;;;;5115252;28;20027;-82
2022/03/20 03:19:12;;;;;;;13.20;5.80;;;;;;;;;;5115227;28;20231;-81
2022/03/20 03:21:38;;;;;;;11.35;5.90;;;;;;;;;;5115610;28;20230;-82
2022/03/20 03:24:04;;;;;;;12.63;5.60;;;;;;;;;;5115519;28;20023;-82
2022/03/20 03:26:30;;;;;;;10.93;6.15;;;;;;;;;;5115242;28;20043;-82
2022/03/20 03:28:56;;;;;;;13.30;6.57;;;;;;;;;;5115189;28;20024;-81
2022/03/20 03:31:22;;;;;;;16.10;6.50;;;;;;;;;;5114932;28;20059;-82
2022/03/20 03:36:33;;;;;;;18.55;6.28;;;;;;;;;;5115010;28;20064;-81
2022/03/20 03:38:59;;;;;;;14.50;6.57;;;;;;;;;;5114810;28;20016;-81
2022/03/20 03:41:25;;;;;;;14.88;6.45;;;;;;;;;;5114789;28;20023;-82
2022/03/20 03:43:52;;;;;;;16.23;7.15;;;;;;;;;;5115246;28;20047;-81
2022/03/20 03:46:18;;;;;;;12.90;6.90;;;;;;;;;;5096289;28;20412;-82
2022/03/20 03:48:45;;;;;;;15.63;7.78;;;;;;;;;;5114770;28;20028;-82
2022/03/20 03:51:11;;;;;;;17.58;7.07;;;;;;;;;;5114561;28;20051;-81
2022/03/20 03:53:37;;;;;;;14.00;7.47;;;;;;;;;;5114420;28;20454;-81
2022/03/20 03:56:03;;;;;;;14.20;7.05;;;;;;;;;;5114607;28;20042;-81
2022/03/20 03:58:29;;;;;;;16.25;7.45;;;;;;;;;;5114422;28;20068;-81
2022/03/20 04:00:55;;;;;;;16.08;7.90;;;;;;;;;;5114883;28;20020;-81
2022/03/20 04:03:21;;;;;;;17.83;8.05;;;;;;;;;;5114664;28;20016;-82
2022/03/20 04:05:47;;;;;;;16.80;7.72;;;;;;;;;;5114628;28;20030;-81
2022/03/20 04:08:15;;;;;;;15.90;7.78;;;;;;;;;;5114408;28;20028;-82
2022/03/20 04:10:41;;;;;;;16.10;7.13;;;;;;;;;;5114897;28;20042;-80
2022/03/20 04:13:08;;;;;;;14.10;7.75;;;;;;;;;;5114515;28;20462;-81
2022/03/20 04:15:34;;;;;;;19.25;8.00;;;;;;;;;;5114253;28;20028;-82
2022/03/20 04:18:01;;;;;;;19.35;8.55;;;;;;;;;;5114348;28;20099;-81
2022/03/20 04:20:27;;;;;;;16.88;8.02;;;;;;;;;;5099774;28;20016;-81
2022/03/20 04:25:39;;;;;;;17.33;8.65;;;;;;;;;;5093884;28;20440;-81
2022/03/20 04:28:06;;;;;;;13.98;7.22;;;;;;;;;;5094084;28;20043;-81
2022/03/20 04:30:33;;;;;;;20.98;8.10;;;;;;;;;;5094018;28;20474;-81
2022/03/20 04:32:59;;;;;;;15.95;8.57;;;;;;;;;;5094395;28;20052;-82
2022/03/20 04:35:25;;;;;;;18.20;8.55;;;;;;;;;;5094490;28;20024;-82
2022/03/20 04:37:51;;;;;;;14.68;8.25;;;;;;;;;;5094837;28;20028;-82
2022/03/20 04:40:18;;;;;;;20.73;8.00;;;;;;;;;;5095347;28;20107;-81
2022/03/20 04:42:44;;;;;;;15.70;8.13;;;;;;;;;;5093979;28;20041;-81
2022/03/20 04:45:11;;;;;;;21.38;9.38;;;;;;;;;;5093858;28;20083;-81
2022/03/20 04:58:37;;;;;;;20.48;8.43;;;;;;;;;;5093197;28;20055;-81
2022/03/20 05:01:03;;;;;;;19.05;9.23;;;;;;;;;;5093185;28;20027;-81
2022/03/20 05:03:32;;;;;;;19.00;9.25;;;;;;;;;;5093530;28;20028;-81
2022/03/20 05:05:58;;;;;;;20.35;9.02;;;;;;;;;;5075066;28;20119;-81
2022/03/20 05:08:24;;;;;;;15.38;8.27;;;;;;;;;;5093522;28;20038;-80
2022/03/20 05:13:36;;;;;;;22.70;9.35;;;;;;;;;;5093129;28;20046;-81
2022/03/20 05:16:02;;;;;;;20.73;9.50;;;;;;;;;;5093024;28;20111;-81
2022/03/20 05:18:28;;;;;;;22.58;9.95;;;;;;;;;;5093177;28;20027;-82
2022/03/20 05:20:54;;;;;;;15.35;8.90;;;;;;;;;;5110862;28;20454;-81
2022/03/20 05:23:21;;;;;;;19.05;9.07;;;;;;;;;;5113486;28;20020;-81
2022/03/20 05:25:47;;;;;;;24.05;10.60;;;;;;;;;;5113181;28;20476;-81
2022/03/20 05:28:14;;;;;;;20.33;10.73;;;;;;;;;;5113322;28;20030;-82
2022/03/20 05:30:42;;;;;;;19.48;9.05;;;;;;;;;;5113503;28;20423;-81
2022/03/20 05:33:10;;;;;;;22.90;9.32;;;;;;;;;;5113454;28;20044;-81
2022/03/20 05:35:36;;;;;;;20.30;10.05;;;;;;;;;;5094645;28;20367;-81
2022/03/20 05:38:02;;;;;;;18.13;9.80;;;;;;;;;;5113371;28;20034;-82
2022/03/20 05:40:28;;;;;;;23.60;9.70;;;;;;;;;;5113460;28;20031;-81
2022/03/20 05:42:54;;;;;;;22.13;9.70;;;;;;;;;;5113099;28;20404;-81
2022/03/20 05:45:20;;;;;;;20.38;10.18;;;;;;;;;;5113032;28;20016;-81
2022/03/20 05:47:46;;;;;;;18.13;9.55;;;;;;;;;;5113656;28;20058;-82
2022/03/20 05:50:12;;;;;;;21.38;10.40;;;;;;;;;;5113532;28;20031;-82
2022/03/20 05:52:38;;;;;;;20.20;9.90;;;;;;;;;;5113153;28;20039;-81
2022/03/20 05:55:05;;;;;;;19.42;9.52;;;;;;;;;;5115779;28;20059;-81
2022/03/20 06:00:23;;;;;;;24.70;10.40;;;;;;;;;;5117025;28;20058;-81
2022/03/20 06:02:49;;;;;;;20.10;9.65;;;;;;;;;;5098942;28;20024;-81
2022/03/20 06:05:16;;;;;;;20.70;10.35;;;;;;;;;;5116797;28;20027;-81
2022/03/20 06:07:43;;;;;;;18.05;9.77;;;;;;;;;;5098471;28;20038;-81
2022/03/20 06:10:19;;;;;;;18.25;9.73;;;;;;;;;;5117282;28;20107;-81
2022/03/20 06:12:45;;;;;;;17.10;9.60;;;;;;;;;;5117184;28;20514;-82
2022/03/20 06:15:12;;;;;;;18.33;9.85;;;;;;;;;;5117395;28;20457;-81
2022/03/20 06:17:44;;;;;;;23.35;10.23;;;;;;;;;;5117362;28;20107;-82
2022/03/20 06:20:11;;;;;;;19.50;9.77;;;;;;;;;;5116406;28;20020;-81
2022/03/20 06:22:37;;;;;;;23.83;10.50;;;;;;;;;;5116314;28;20019;-82
2022/03/20 06:25:05;;;;;;;21.30;10.52;;;;;;;;;;5116367;28;20361;-81
2022/03/20 06:27:41;;;;;;;23.23;10.75;;;;;;;;;;5116439;28;20091;-81
2022/03/20 06:30:07;;;;;;;21.45;10.35;;;;;;;;;;5097808;28;20080;-82
2022/03/20 06:32:33;;;;;;;17.40;9.88;;;;;;;;;;5116600;28;20467;-81
2022/03/20 06:34:59;;;;;;;18.65;9.77;;;;;;;;;;5116086;28;20031;-81
2022/03/20 06:37:25;;;;;;;20.40;10.52;;;;;;;;;;5115895;28;20026;-80
2022/03/20 06:39:51;;;;;;;24.67;10.95;;;;;;;;;;5115904;28;20016;-81
2022/03/20 06:42:18;;;;;;;20.58;9.73;;;;;;;;;;5115898;28;20020;-82
2022/03/20 06:44:44;;;;;;;23.25;10.55;;;;;;;;;;5115875;28;20423;-81
2022/03/20 06:47:10;;;;;;;21.88;11.00;;;;;;;;;;5112148;28;20028;-81
2022/03/20 06:49:36;;;;;;;18.65;10.00;;;;;;;;;;5095491;28;20020;-82
2022/03/20 06:52:02;;;;;;;30.27;10.20;;;;;;;;;;5095314;28;20468;-81
2022/03/20 06:54:29;;;;;;;17.80;10.30;;;;;;;;;;5095429;28;20034;-82
2022/03/20 06:56:55;;;;;;;22.15;10.63;;;;;;;;;;5095248;28;20082;-82
2022/03/20 06:59:21;;;;;;;22.05;10.00;;;;;;;;;;5095280;28;20020;-81
2022/03/20 07:01:47;;;;;;;23.23;10.15;;;;;;;;;;5095434;28;20016;-81
2022/03/20 07:04:13;;;;;;;18.85;10.27;;;;;;;;;;5095159;28;20355;-81
2022/03/20 07:06:40;;;;;;;18.60;10.23;;;;;;;;;;5076209;28;20394;-82
2022/03/20 07:09:06;;;;;;;19.63;10.18;;;;;;;;;;5095282;28;20024;-81
2022/03/20 07:11:35;;;;;;;21.38;10.73;;;;;;;;;;5094671;28;20035;-81
2022/03/20 07:14:01;;;;;;;21.50;10.65;;;;;;;;;;5094775;28;20051;-81
2022/03/20 07:16:31;;;;;;;22.73;10.57;;;;;;;;;;5094964;28;20020;-81
2022/03/20 07:18:57;;;;;;;22.52;11.45;;;;;;;;;;5078421;28;20028;-82
2022/03/20 07:21:23;;;;;;;20.30;11.15;;;;;;;;;;5097393;28;20106;-81
2022/03/20 07:23:51;;;;;;;24.85;11.75;;;;;;;;;;5114788;28;20503;-81
2022/03/20 07:31:48;;;;;;;19.40;10.10;;;;;;;;;;5113665;28;20070;-77
2022/03/20 07:34:14;;;;;;;22.75;10.80;;;;;;;;;;5113606;28;20065;-77
2022/03/20 07:36:40;;;;;;;25.67;11.77;;;;;;;;;;5113548;28;20050;-77
2022/03/20 07:39:06;;;;;;;18.40;10.70;;;;;;;;;;5113439;28;20020;-77
2022/03/20 07:41:33;;;;;;;20.08;11.02;;;;;;;;;;5113471;28;20445;-77
2022/03/20 07:43:59;;;;;;;24.73;11.25;;;;;;;;;;5113420;28;20380;-77
2022/03/20 07:46:25;;;;;;;21.73;10.90;;;;;;;;;;5113459;28;20016;-77
2022/03/20 07:48:51;;;;;;;19.25;10.65;;;;;;;;;;5095354;28;20047;-77
2022/03/20 07:51:20;;;;;;;21.70;10.65;;;;;;;;;;5092901;28;20031;-77
2022/03/20 07:53:46;;;;;;;19.65;11.18;;;;;;;;;;5092753;28;20020;-77
2022/03/20 07:56:12;;;;;;;27.20;11.48;;;;;;;;;;5092684;28;20039;-77
2022/03/20 07:58:38;;;;;;;23.75;11.23;;;;;;;;;;5092617;28;20055;-76
2022/03/20 08:01:04;;;;;;;19.42;11.23;;;;;;;;;;5097251;28;20477;-77
2022/03/20 08:03:30;;;;;;;21.50;11.48;;;;;;;;;;5112755;28;20149;-77
2022/03/20 08:05:57;;;;;;;22.33;11.30;;;;;;;;;;5112759;28;20497;-77
2022/03/20 08:08:23;;;;;;;21.17;11.90;;;;;;;;;;5112835;28;20028;-77
2022/03/20 08:10:49;;;;;;;26.17;11.23;;;;;;;;;;5112768;28;20055;-77
2022/03/20 08:13:15;;;;;;;21.23;11.35;;;;;;;;;;5112707;28;20444;-77
2022/03/20 08:15:42;;;;;;;23.83;11.32;;;;;;;;;;5112817;28;20059;-77
2022/03/20 08:18:08;;;;;;;21.50;11.18;;;;;;;;;;5111892;28;20021;-77
2022/03/20 08:20:34;;;;;;;25.17;11.70;;;;;;;;;;5112462;28;20484;-77
2022/03/20 08:23:01;;;;;;;20.92;11.07;;;;;;;;;;5112579;28;20038;-77
2022/03/20 08:25:27;;;;;;;26.00;12.73;;;;;;;;;;5112444;28;20046;-77
2022/03/20 08:27:56;;;;;;;22.77;11.68;;;;;;;;;;5112571;28;20358;-77
2022/03/20 08:30:22;;;;;;;23.77;11.77;;;;;;;;;;5094155;28;20429;-77
2022/03/20 08:32:48;;;;;;;21.80;11.25;;;;;;;;;;5112370;28;20024;-77
2022/03/20 08:35:19;;;;;;;24.30;11.88;;;;;;;;;;5112416;28;20027;-77
2022/03/20 08:37:45;;;;;;;21.00;12.27;;;;;;;;;;5112289;28;20054;-77
2022/03/20 08:40:15;;;;;;;22.67;11.98;;;;;;;;;;5112287;28;20028;-77
2022/03/20 08:42:43;;;;;;;23.80;11.85;;;;;;;;;;5112364;28;20041;-77
2022/03/20 08:45:11;;;;;;;22.25;11.85;;;;;;;;;;5112270;28;20119;-77
2022/03/20 08:47:37;;;;;;;21.20;11.45;;;;;;;;;;5093891;28;20026;-77
2022/03/20 08:50:04;;;;;;;21.50;11.38;;;;;;;;;;5111774;28;20084;-77
2022/03/20 08:52:30;;;;;;;25.20;13.00;;;;;;;;;;5111936;28;20383;-76
2022/03/20 08:54:56;;;;;;;22.92;12.50;;;;;;;;;;5111488;28;20031;-77
2022/03/20 08:57:25;;;;;;;24.08;11.73;;;;;;;;;;5111559;28;20055;-77
2022/03/20 08:59:52;;;;;;;30.05;13.25;;;;;;;;;;5093131;28;20026;-77
2022/03/20 09:02:18;;;;;;;24.75;12.30;;;;;;;;;;5111633;28;20024;-77
2022/03/20 09:04:44;;;;;;;22.92;11.85;;;;;;;;;;5111373;28;20026;-77
2022/03/20 09:07:10;;;;;;;26.50;13.02;;;;;;;;;;5110814;28;20646;-77
2022/03/20 09:09:36;;;;;;;32.70;13.27;;;;;;;;;;5110212;28;20084;-77
2022/03/20 09:12:02;;;;;;;31.45;13.20;;;;;;;;;;5110311;28;20240;-77
2022/03/20 09:14:28;;;;;;;23.00;12.95;;;;;;;;;;5111401;28;20023;-77
2022/03/20 09:19:39;;;;;;;23.48;12.10;;;;;;;;;;5110172;28;20027;-76
2022/03/20 09:22:06;;;;;;;24.20;12.93;;;;;;;;;;5112165;28;20028;-77
2022/03/20 09:24:33;;;;;;;21.25;12.50;;;;;;;;;;5112279;28;20344;-76
2022/03/20 09:27:00;;;;;;;20.38;12.13;;;;;;;;;;5112166;28;20159;-77
2022/03/20 09:29:26;;;;;;;23.65;12.30;;;;;;;;;;5115296;28;20015;-75
2022/03/20 09:31:52;;;;;;;25.55;13.00;;;;;;;;;;5117312;28;20157;-82
2022/03/20 09:34:18;;;;;;;24.58;12.80;;;;;;;;;;5117735;28;20464;-82
2022/03/20 09:36:44;;;;;;;20.75;12.35;;;;;;;;;;5117188;28;20077;-82
2022/03/20 09:39:11;;;;;;;25.02;13.57;;;;;;;;;;5117411;28;20027;-82
2022/03/20 09:41:41;;;;;;;22.38;12.77;;;;;;;;;;5117373;28;20043;-83
2022/03/20 09:44:07;;;;;;;22.25;13.30;;;;;;;;;;5117343;28;20016;-83
2022/03/20 09:46:33;;;;;;;26.42;14.52;;;;;;;;;;5117385;28;20471;-82
2022/03/20 09:49:01;;;;;;;24.77;12.70;;;;;;;;;;5111297;28;20059;-83
2022/03/20 09:51:27;;;;;;;28.67;13.77;;;;;;;;;;5117167;28;20020;-82
2022/03/20 09:53:53;;;;;;;31.15;13.68;;;;;;;;;;5116847;28;20066;-81
2022/03/20 09:56:19;;;;;;;27.08;14.60;;;;;;;;;;5117187;28;20409;-81
2022/03/20 09:58:45;;;;;;;27.13;13.70;;;;;;;;;;5098198;28;20060;-82
2022/03/20 10:01:11;;;;;;;24.60;13.80;;;;;;;;;;5117225;28;20027;-82
2022/03/20 10:03:38;;;;;;;23.98;14.55;;;;;;;;;;5116851;28;20024;-82
2022/03/20 10:06:05;;;;;;;25.52;13.93;;;;;;;;;;5116206;27;20047;-81
2022/03/20 10:08:31;;;;;;;29.08;14.57;;;;;;;;;;5116600;28;20024;-82
2022/03/20 10:11:13;;;;;;;27.05;14.32;;;;;;;;;;5116627;28;20066;-82
2022/03/20 10:13:39;;;;;;;24.38;14.70;;;;;;;;;;5116661;28;20072;-82
2022/03/20 10:16:17;;;;;;;25.23;15.02;;;;;;;;;;5116452;28;20028;-82
2022/03/20 10:18:43;;;;;;;29.15;13.45;;;;;;;;;;5116779;28;20024;-82
2022/03/20 10:21:09;;;;;;;26.58;14.98;;;;;;;;;;5096285;28;20137;-81
2022/03/20 10:23:36;;;;;;;29.83;14.63;;;;;;;;;;5095874;28;20072;-82
2022/03/20 10:26:13;;;;;;;27.33;15.50;;;;;;;;;;5095338;28;20024;-77
2022/03/20 10:28:40;;;;;;;29.58;15.98;;;;;;;;;;5095010;28;20034;-78
2022/03/20 10:31:09;;;;;;;24.90;14.63;;;;;;;;;;5095480;28;20059;-80
2022/03/20 10:33:40;;;;;;;27.70;15.30;;;;;;;;;;5096330;28;20509;-81
2022/03/20 10:36:10;;;;;;;27.17;15.55;;;;;;;;;;5096269;28;20044;-81
2022/03/20 10:38:36;;;;;;;29.67;16.40;;;;;;;;;;5096584;28;20125;-81
2022/03/20 10:41:15;;;;;;;27.17;16.08;;;;;;;;;;5096020;28;20067;-81
2022/03/20 10:43:42;;;;;;;27.27;15.73;;;;;;;;;;5105638;28;20019;-81
2022/03/20 10:46:08;;;;;;;28.55;14.70;;;;;;;;;;5113398;28;20501;-81
2022/03/20 10:48:38;;;;;;;27.15;14.07;;;;;;;;;;5114668;28;20034;-79
2022/03/20 10:51:06;;;;;;;29.85;16.17;;;;;;;;;;5117198;28;20033;-77
2022/03/20 10:53:32;;;;;;;29.67;16.23;;;;;;;;;;5109273;28;20122;-78
2022/03/20 10:56:05;;;;;;;25.08;15.43;;;;;;;;;;5089859;28;20394;-78
2022/03/20 10:58:31;;;;;;;27.05;15.70;;;;;;;;;;5104880;28;20051;-78
2022/03/20 11:00:57;;;;;;;27.55;15.30;;;;;;;;;;5105031;28;20020;-76
2022/03/20 11:03:24;;;;;;;26.42;15.50;;;;;;;;;;5102192;28;20015;-77
2022/03/20 11:05:50;;;;;;;31.40;15.90;;;;;;;;;;5103872;28;20016;-77
2022/03/20 11:08:19;;;;;;;30.38;16.15;;;;;;;;;;5103121;28;20016;-78
2022/03/20 11:10:46;;;;;;;28.55;16.30;;;;;;;;;;5103432;28;20011;-78
2022/03/20 11:13:17;;;;;;;29.30;15.10;;;;;;;;;;5114477;28;20024;-79
2022/03/20 11:15:48;;;;;;;28.17;16.08;;;;;;;;;;5115842;28;20046;-79
2022/03/20 11:18:15;;;;;;;28.95;15.40;;;;;;;;;;5115699;28;20016;-80
2022/03/20 11:20:45;;;;;;;29.48;16.10;;;;;;;;;;5115455;28;20081;-81
2022/03/20 11:23:13;;;;;;;33.70;16.70;;;;;;;;;;5105271;27;20015;-80
2022/03/20 11:25:40;;;;;;;28.15;16.05;;;;;;;;;;5073459;28;20074;-80
2022/03/20 11:28:08;;;;;;;28.63;16.00;;;;;;;;;;5076349;28;20039;-80
2022/03/20 11:30:35;;;;;;;30.30;16.02;;;;;;;;;;5094495;28;20013;-81
2022/03/20 11:33:02;;;;;;;31.50;16.05;;;;;;;;;;5094700;28;20017;-80
2022/03/20 11:35:30;;;;;;;34.17;17.30;;;;;;;;;;5094480;28;20105;-80
2022/03/20 11:38:11;;;;;;;27.48;16.42;;;;;;;;;;5094913;28;20024;-80
2022/03/20 11:40:41;;;;;;;31.05;17.17;;;;;;;;;;5094493;28;20012;-80
2022/03/20 11:43:19;;;;;;;30.77;17.65;;;;;;;;;;5094347;28;20020;-80
2022/03/20 11:46:04;;;;;;;32.05;17.50;;;;;;;;;;5094572;28;20012;-80
2022/03/20 11:48:30;;;;;;;32.58;17.95;;;;;;;;;;5094350;28;20083;-80
2022/03/20 11:50:57;;;;;;;28.58;16.85;;;;;;;;;;5094507;28;20031;-80
2022/03/20 11:53:30;;;;;;;29.25;18.25;;;;;;;;;;5094417;28;20106;-80
2022/03/20 11:55:56;;;;;;;30.00;16.95;;;;;;;;;;5094008;28;20065;-80
2022/03/20 11:58:24;;;;;;;30.90;17.50;;;;;;;;;;5094018;28;20044;-80
2022/03/20 12:01:05;;;;;;;36.25;18.33;;;;;;;;;;5076399;28;20032;-80
2022/03/20 12:03:44;;;;;;;33.22;17.73;;;;;;;;;;5094267;28;20020;-80
2022/03/20 12:06:13;;;;;;;33.65;18.50;;;;;;;;;;5094467;28;20024;-80
2022/03/20 12:08:39;;;;;;;30.88;17.92;;;;;;;;;;5093942;28;20028;-79
2022/03/20 12:11:09;;;;;;;34.15;17.55;;;;;;;;;;5094080;28;20089;-80
2022/03/20 12:13:35;;;;;;;31.67;17.25;;;;;;;;;;5094282;28;20016;-80
2022/03/20 12:16:01;;;;;;;31.48;18.10;;;;;;;;;;5075707;28;20409;-81
2022/03/20 12:18:27;;;;;;;29.77;17.80;;;;;;;;;;5094059;28;20050;-80
2022/03/20 12:21:01;;;;;;;31.63;18.30;;;;;;;;;;5093741;28;20024;-81
2022/03/20 12:23:38;;;;;;;30.85;17.73;;;;;;;;;;5094180;28;20027;-80
2022/03/20 12:26:22;;;;;;;30.40;17.90;;;;;;;;;;5093868;28;20474;-81
2022/03/20 12:28:48;;;;;;;32.03;18.05;;;;;;;;;;5093768;28;20028;-80
2022/03/20 12:31:25;;;;;;;35.33;19.23;;;;;;;;;;5075271;28;20385;-80
2022/03/20 12:34:11;;;;;;;32.78;18.48;;;;;;;;;;5093821;28;20030;-80
2022/03/20 12:36:37;;;;;;;32.65;18.50;;;;;;;;;;5093206;28;20016;-80
2022/03/20 12:39:03;;;;;;;30.17;18.40;;;;;;;;;;5093690;28;20023;-80
2022/03/20 12:41:29;;;;;;;31.00;17.98;;;;;;;;;;5093348;28;20023;-80
2022/03/20 12:43:57;;;;;;;32.20;17.98;;;;;;;;;;5093128;28;20138;-80
2022/03/20 12:46:23;;;;;;;30.98;17.80;;;;;;;;;;5075323;28;20482;-80
2022/03/20 12:48:53;;;;;;;30.92;18.17;;;;;;;;;;5093168;28;20049;-80
2022/03/20 12:51:49;;;;;;;30.33;18.35;;;;;;;;;;5093286;28;20020;-80
2022/03/20 12:54:16;;;;;;;38.83;20.65;;;;;;;;;;5011012;28;20034;-80
2022/03/20 12:56:59;;;;;;;34.88;20.02;;;;;;;;;;4994675;28;20025;-80
2022/03/20 12:59:25;;;;;;;31.95;19.63;;;;;;;;;;5011248;28;20484;-80
2022/03/20 13:01:52;;;;;;;29.67;18.55;;;;;;;;;;5011588;28;20033;-80
2022/03/20 13:04:19;;;;;;;34.65;20.25;;;;;;;;;;5010928;28;20037;-80
2022/03/20 13:06:45;;;;;;;32.15;19.23;;;;;;;;;;5011248;28;20481;-80
2022/03/20 13:09:12;;;;;;;29.77;18.02;;;;;;;;;;5011197;28;20512;-81
2022/03/20 13:11:53;;;;;;;32.72;19.02;;;;;;;;;;5011464;28;20034;-81
2022/03/20 13:14:21;;;;;;;31.35;18.80;;;;;;;;;;5011037;28;20430;-81
2022/03/20 13:17:02;;;;;;;32.67;19.20;;;;;;;;;;5011063;28;20417;-81
2022/03/20 13:19:29;;;;;;;34.63;19.77;;;;;;;;;;5016646;28;20105;-81
2022/03/20 13:21:55;;;;;;;31.73;18.45;;;;;;;;;;5030784;28;20029;-81
2022/03/20 13:24:28;;;;;;;38.75;19.95;;;;;;;;;;5031204;28;20105;-80
2022/03/20 13:27:01;;;;;;;31.20;18.38;;;;;;;;;;5030587;28;20392;-81
2022/03/20 13:29:28;;;;;;;32.42;19.20;;;;;;;;;;5032504;28;20036;-80
2022/03/20 13:31:58;;;;;;;36.20;19.92;;;;;;;;;;5074744;28;20043;-81
2022/03/20 13:34:24;;;;;;;36.13;18.73;;;;;;;;;;5092906;28;20102;-81
2022/03/20 13:36:50;;;;;;;31.75;18.83;;;;;;;;;;5092981;28;20028;-81
2022/03/20 13:39:17;;;;;;;37.28;19.42;;;;;;;;;;5092706;28;20123;-81
2022/03/20 13:41:44;;;;;;;34.10;20.02;;;;;;;;;;5092704;28;20051;-81
2022/03/20 13:44:11;;;;;;;32.22;18.48;;;;;;;;;;5092622;28;20020;-80
2022/03/20 13:46:38;;;;;;;38.00;19.90;;;;;;;;;;5093354;28;20020;-80
2022/03/20 13:49:04;;;;;;;31.42;18.45;;;;;;;;;;5112318;28;20028;-79
2022/03/20 13:51:30;;;;;;;36.25;21.33;;;;;;;;;;5094742;28;20027;-80
2022/03/20 13:54:13;;;;;;;36.20;21.15;;;;;;;;;;5113078;28;20077;-80
2022/03/20 13:56:40;;;;;;;35.90;20.20;;;;;;;;;;5112860;28;20036;-80
2022/03/20 13:59:07;;;;;;;33.50;19.58;;;;;;;;;;5112720;28;20050;-80
2022/03/20 14:01:41;;;;;;;34.28;20.50;;;;;;;;;;5112997;28;20090;-80
2022/03/20 14:04:33;;;;;;;34.72;20.50;;;;;;;;;;5112957;28;20011;-80
2022/03/20 14:07:04;;;;;;;41.47;22.10;;;;;;;;;;5101149;28;20075;-80
2022/03/20 14:09:39;;;;;;;23.40;13.27;;;;;;;;;;5112883;28;20027;-80
2022/03/20 14:12:27;;;;;;;21.17;12.63;;;;;;;;;;5112770;28;20351;-80
2022/03/20 14:14:54;;;;;;;28.20;15.88;;;;;;;;;;5113176;28;20051;-80
2022/03/20 14:17:38;;;;;;;33.28;16.42;;;;;;;;;;5116331;28;20050;-78
2022/03/20 14:20:06;;;;;;;31.92;19.27;;;;;;;;;;5104563;28;20066;-77
2022/03/20 14:22:45;;;;;;;32.70;16.15;;;;;;;;;;5094210;28;20448;-75
2022/03/20 14:25:14;;;;;;;31.38;18.52;;;;;;;;;;5097179;28;20020;-76
2022/03/20 14:27:40;;;;;;;31.75;18.35;;;;;;;;;;5100532;28;20028;-76
2022/03/20 14:41:38;;;;;;;41.33;22.10;;;;;;;;;;5044599;28;20415;-75
2022/03/20 14:44:14;;;;;;;36.47;21.42;;;;;;;;;;5042918;28;20034;-76
2022/03/20 14:46:47;;;;;;;41.28;22.45;;;;;;;;;;5044122;28;20132;-76
2022/03/20 14:49:13;;;;;;;36.88;21.17;;;;;;;;;;5048694;28;20136;-76
2022/03/20 14:51:41;;;;;;;38.17;20.75;;;;;;;;;;5050177;28;20084;-77
2022/03/20 14:54:08;;;;;;;33.78;21.05;;;;;;;;;;5045798;28;20424;-77
2022/03/20 14:56:34;;;;;;;35.20;21.95;;;;;;;;;;5046807;28;20033;-77
2022/03/20 14:59:01;;;;;;;31.60;21.30;;;;;;;;;;5043504;28;20440;-77
2022/03/20 15:01:27;;;;;;;34.10;23.10;;;;;;;;;;5047028;28;20021;-77
2022/03/20 15:03:54;;;;;;;33.92;22.15;;;;;;;;;;5048460;28;20025;-77
2022/03/20 15:06:24;;;;;;;30.77;21.65;;;;;;;;;;5043098;28;20570;-75
2022/03/20 15:11:35;;;;;;;30.70;22.45;;;;;;;;;;5057521;27;20066;-75
2022/03/20 15:14:02;;;;;;;33.83;24.77;;;;;;;;;;5104495;27;20146;-75